Time;durP1;ratioP1;P1;durP2;ratioP2;P2;SDS_P1;SDS_P2;PMS_P1;PMS_P2;Temp;Humidity;BMP_temperature;BMP_pressure;BME280_temperature;BME280_humidity;BME280_pressure;Samples;Min_cycle;Max_cycle;Signal;HPM_P1;HPM_P2
2023/06/09 00:02:03;;;;;;;9.23;5.03;;;15.30;99.90;;;;;;6153790;23;20328;-79
2023/06/09 00:04:30;;;;;;;5.35;4.78;;;15.20;99.90;;;;;;6153072;23;20016;-80
2023/06/09 00:06:56;;;;;;;6.28;5.03;;;15.20;99.90;;;;;;6154592;23;20462;-79
2023/06/09 00:09:22;;;;;;;8.07;4.80;;;15.10;99.90;;;;;;6154392;23;20033;-79
2023/06/09 00:11:49;;;;;;;7.97;5.15;;;15.00;99.90;;;;;;6180489;23;20312;-80
2023/06/09 00:14:15;;;;;;;7.47;4.63;;;15.00;99.90;;;;;;6153860;23;20005;-79
2023/06/09 00:16:45;;;;;;;7.28;4.82;;;15.00;99.90;;;;;;6154283;23;20909;-78
2023/06/09 00:19:11;;;;;;;7.10;5.20;;;14.90;99.90;;;;;;6180769;23;20423;-79
2023/06/09 00:21:37;;;;;;;6.97;4.50;;;14.90;99.90;;;;;;6180740;23;20036;-79
2023/06/09 00:24:04;;;;;;;6.07;4.25;;;14.90;99.90;;;;;;6179760;23;20455;-80
2023/06/09 00:26:29;;;;;;;6.43;4.97;;;14.90;99.90;;;;;;6154124;23;20001;-80
2023/06/09 00:28:55;;;;;;;5.47;4.18;;;14.80;99.90;;;;;;6154361;23;20013;-79
2023/06/09 00:31:20;;;;;;;9.80;5.03;;;14.80;99.90;;;;;;6180920;23;20032;-79
2023/06/09 00:33:46;;;;;;;7.95;5.45;;;14.70;99.90;;;;;;6181119;23;20393;-80
2023/06/09 00:36:12;;;;;;;6.70;4.18;;;14.70;99.90;;;;;;6152695;23;20690;-80
2023/06/09 00:38:37;;;;;;;8.15;4.75;;;14.60;99.90;;;;;;6154222;23;20092;-80
2023/06/09 00:41:03;;;;;;;7.85;5.28;;;14.60;99.90;;;;;;6181158;23;20001;-79
2023/06/09 00:43:28;;;;;;;6.05;4.70;;;14.50;99.90;;;;;;6157020;23;20469;-80
2023/06/09 00:45:54;;;;;;;6.03;4.65;;;14.40;99.90;;;;;;6186105;23;19997;-79
2023/06/09 00:48:20;;;;;;;7.72;5.63;;;14.40;99.90;;;;;;6179493;23;20005;-79
2023/06/09 00:50:47;;;;;;;7.57;4.95;;;14.30;99.90;;;;;;6180475;23;20001;-79
2023/06/09 00:53:13;;;;;;;9.88;4.90;;;14.20;99.90;;;;;;6153040;23;20045;-79
2023/06/09 00:55:40;;;;;;;8.45;5.68;;;14.00;99.90;;;;;;6147950;23;20399;-79
2023/06/09 00:58:08;;;;;;;7.85;4.85;;;14.00;99.90;;;;;;6150918;23;20438;-78
2023/06/09 01:00:35;;;;;;;10.13;5.35;;;13.90;99.90;;;;;;6150730;23;20024;-78
2023/06/09 01:03:02;;;;;;;9.40;5.22;;;13.90;99.90;;;;;;6151369;23;20012;-79
2023/06/09 01:05:36;;;;;;;10.05;5.13;;;13.90;99.90;;;;;;6178516;23;20005;-79
2023/06/09 01:08:21;;;;;;;9.70;4.90;;;13.90;99.90;;;;;;6151196;23;20113;-79
2023/06/09 01:11:00;;;;;;;7.50;5.28;;;13.90;99.90;;;;;;6153246;23;20425;-79
2023/06/09 01:13:50;;;;;;;10.60;5.60;;;13.80;99.90;;;;;;6180114;23;20008;-78
2023/06/09 01:16:33;;;;;;;8.30;5.93;;;13.80;99.90;;;;;;6153278;23;20001;-79
2023/06/09 01:19:04;;;;;;;8.02;5.30;;;13.80;99.90;;;;;;6153967;23;20014;-79
2023/06/09 01:21:40;;;;;;;10.43;6.47;;;13.70;99.90;;;;;;6153095;23;20084;-78
2023/06/09 01:24:33;;;;;;;6.80;5.15;;;13.70;99.90;;;;;;6153451;23;20237;-78
2023/06/09 01:27:01;;;;;;;8.13;5.07;;;13.70;99.90;;;;;;6154024;23;20532;-80
2023/06/09 01:29:30;;;;;;;10.90;5.80;;;13.70;99.90;;;;;;6153342;23;20021;-78
2023/06/09 01:31:57;;;;;;;8.02;5.40;;;13.70;99.90;;;;;;6153123;23;20049;-79
2023/06/09 01:34:23;;;;;;;7.88;5.43;;;13.60;99.90;;;;;;6179353;23;20008;-79
2023/06/09 01:36:51;;;;;;;11.02;5.30;;;13.60;99.90;;;;;;6154180;23;20008;-79
2023/06/09 01:39:17;;;;;;;8.77;5.75;;;13.60;99.90;;;;;;6153136;23;20036;-80
2023/06/09 01:41:42;;;;;;;7.10;5.22;;;13.50;99.90;;;;;;6180196;23;20001;-80
2023/06/09 01:44:08;;;;;;;7.88;5.13;;;13.50;99.90;;;;;;6159367;23;20048;-79
2023/06/09 01:46:34;;;;;;;6.47;5.15;;;13.50;99.90;;;;;;6164359;23;20005;-78
2023/06/09 01:49:02;;;;;;;7.40;5.00;;;13.40;99.90;;;;;;6190251;23;20001;-79
2023/06/09 01:51:43;;;;;;;8.95;5.15;;;13.40;99.90;;;;;;6153862;23;20005;-80
2023/06/09 01:54:12;;;;;;;7.13;5.85;;;13.30;99.90;;;;;;6155211;23;20063;-79
2023/06/09 01:56:44;;;;;;;8.95;5.43;;;13.30;99.90;;;;;;6155205;23;20442;-79
2023/06/09 01:59:16;;;;;;;8.13;4.72;;;13.20;99.90;;;;;;6154581;23;20064;-80
2023/06/09 02:01:44;;;;;;;5.88;5.28;;;13.20;99.90;;;;;;6155939;23;20100;-79
2023/06/09 02:04:12;;;;;;;9.65;5.82;;;13.20;99.90;;;;;;6154945;23;20020;-79
2023/06/09 02:06:37;;;;;;;8.00;5.40;;;13.10;99.90;;;;;;6154979;23;20016;-80
2023/06/09 02:09:03;;;;;;;8.45;5.43;;;13.10;99.90;;;;;;6181382;23;20021;-80
2023/06/09 02:11:28;;;;;;;9.00;5.03;;;13.10;99.90;;;;;;6181782;23;20435;-79
2023/06/09 02:13:55;;;;;;;7.78;5.35;;;13.10;99.90;;;;;;6154510;23;20060;-80
2023/06/09 02:16:22;;;;;;;9.60;5.68;;;13.00;99.90;;;;;;6181324;23;20001;-79
2023/06/09 02:18:49;;;;;;;6.28;5.05;;;13.00;99.90;;;;;;6154557;23;20315;-79
2023/06/09 02:21:15;;;;;;;10.15;5.47;;;13.00;99.90;;;;;;6156271;23;20012;-79
2023/06/09 02:23:40;;;;;;;5.75;4.47;;;12.90;99.90;;;;;;6187460;23;20080;-79
2023/06/09 02:26:09;;;;;;;6.97;4.90;;;12.90;99.90;;;;;;6153783;23;20044;-79
2023/06/09 02:28:34;;;;;;;9.10;4.95;;;12.90;99.90;;;;;;6160992;23;20013;-78
2023/06/09 02:31:00;;;;;;;11.35;5.18;;;13.00;99.90;;;;;;6158079;23;20005;-78
2023/06/09 02:33:26;;;;;;;9.30;6.18;;;12.90;99.90;;;;;;6155067;23;20059;-79
2023/06/09 02:35:52;;;;;;;8.68;5.88;;;12.90;99.90;;;;;;6154902;23;20012;-79
2023/06/09 02:38:18;;;;;;;7.20;5.63;;;12.90;99.90;;;;;;6180547;23;20031;-79
2023/06/09 02:40:46;;;;;;;6.70;5.75;;;12.90;99.90;;;;;;6181243;23;20545;-79
2023/06/09 02:43:12;;;;;;;7.40;5.40;;;12.80;99.90;;;;;;6153420;23;20005;-78
2023/06/09 02:45:38;;;;;;;8.23;5.38;;;12.80;99.90;;;;;;6181054;23;20013;-79
2023/06/09 02:48:03;;;;;;;8.82;4.90;;;12.80;99.90;;;;;;6153510;23;20404;-79
2023/06/09 02:50:29;;;;;;;6.65;5.28;;;12.70;99.90;;;;;;6153613;23;20047;-79
2023/06/09 02:52:55;;;;;;;11.27;5.60;;;12.70;99.90;;;;;;6180490;23;20001;-78
2023/06/09 02:55:21;;;;;;;10.07;5.60;;;12.70;99.90;;;;;;6182039;23;20018;-79
2023/06/09 02:57:47;;;;;;;8.68;5.10;;;12.70;99.90;;;;;;6154973;23;20046;-80
2023/06/09 03:00:14;;;;;;;9.48;6.00;;;12.70;99.90;;;;;;6154247;23;20312;-78
2023/06/09 03:02:45;;;;;;;8.82;5.18;;;12.70;99.90;;;;;;6155315;23;19997;-79
2023/06/09 03:05:11;;;;;;;7.78;5.82;;;12.70;99.90;;;;;;6181781;23;20009;-79
2023/06/09 03:07:36;;;;;;;8.57;5.50;;;12.60;99.90;;;;;;6155024;23;20005;-79
2023/06/09 03:10:06;;;;;;;9.93;5.97;;;12.60;99.90;;;;;;6155480;23;20040;-79
2023/06/09 03:12:31;;;;;;;8.45;5.22;;;12.60;99.90;;;;;;6155595;23;20001;-80
2023/06/09 03:14:57;;;;;;;8.73;5.45;;;12.60;99.90;;;;;;6155278;23;19993;-79
2023/06/09 03:17:22;;;;;;;8.23;4.97;;;12.50;99.90;;;;;;6155615;23;20016;-79
2023/06/09 03:19:48;;;;;;;11.40;5.72;;;12.60;99.90;;;;;;6155492;23;20012;-79
2023/06/09 03:22:13;;;;;;;9.80;5.55;;;12.60;99.90;;;;;;6158367;23;20009;-79
2023/06/09 03:24:39;;;;;;;7.15;5.30;;;12.50;99.90;;;;;;6166333;23;20047;-77
2023/06/09 03:27:05;;;;;;;8.13;5.55;;;12.60;99.90;;;;;;6165903;23;20120;-79
2023/06/09 03:29:31;;;;;;;9.70;5.45;;;12.60;99.90;;;;;;6157965;23;20009;-78
2023/06/09 03:31:57;;;;;;;13.40;6.38;;;12.60;99.90;;;;;;6154413;23;20117;-78
2023/06/09 03:34:22;;;;;;;8.82;5.60;;;12.60;99.90;;;;;;6157844;23;20027;-78
2023/06/09 03:36:48;;;;;;;10.18;5.50;;;12.60;99.90;;;;;;6160040;23;20028;-79
2023/06/09 03:39:14;;;;;;;9.65;5.05;;;12.60;99.90;;;;;;6157443;23;20443;-79
2023/06/09 03:41:40;;;;;;;6.90;4.90;;;12.50;99.90;;;;;;6157424;23;20099;-79
2023/06/09 03:44:05;;;;;;;9.55;5.93;;;12.60;99.90;;;;;;6158249;23;20012;-79
2023/06/09 03:46:31;;;;;;;6.95;4.93;;;12.60;99.90;;;;;;6187561;23;20020;-79
2023/06/09 03:48:57;;;;;;;7.97;6.05;;;12.60;99.90;;;;;;6160007;23;20020;-79
2023/06/09 03:51:22;;;;;;;8.35;5.25;;;12.50;99.90;;;;;;6158766;23;20012;-78
2023/06/09 03:53:48;;;;;;;8.05;5.18;;;12.50;99.90;;;;;;6160300;23;20013;-78
2023/06/09 03:56:14;;;;;;;8.77;5.40;;;12.60;99.90;;;;;;6188872;23;20086;-79
2023/06/09 03:58:40;;;;;;;9.80;5.13;;;12.60;99.90;;;;;;6189174;23;20047;-78
2023/06/09 04:01:10;;;;;;;11.43;5.53;;;12.60;99.90;;;;;;6165799;23;20037;-78
2023/06/09 04:03:36;;;;;;;11.05;4.70;;;12.60;99.90;;;;;;6156733;23;20009;-79
2023/06/09 04:06:03;;;;;;;8.32;5.50;;;12.60;99.90;;;;;;6157970;23;20032;-78
2023/06/09 04:08:29;;;;;;;7.03;4.70;;;12.70;99.90;;;;;;6183000;23;20417;-79
2023/06/09 04:10:55;;;;;;;7.25;4.97;;;12.70;99.90;;;;;;6158880;23;20005;-78
2023/06/09 04:13:20;;;;;;;11.45;5.10;;;12.80;99.90;;;;;;6181431;23;20335;-78
2023/06/09 04:15:46;;;;;;;6.75;4.72;;;12.80;99.90;;;;;;6181479;23;19997;-78
2023/06/09 04:18:12;;;;;;;10.13;4.90;;;12.80;99.90;;;;;;6182415;23;20005;-83
2023/06/09 04:20:38;;;;;;;9.95;5.30;;;12.80;99.90;;;;;;6156200;23;20021;-78
2023/06/09 04:23:04;;;;;;;9.77;5.20;;;12.90;99.90;;;;;;6155971;23;20009;-78
2023/06/09 04:25:29;;;;;;;7.38;5.70;;;13.00;99.90;;;;;;6154514;23;20001;-79
2023/06/09 04:27:56;;;;;;;6.28;4.88;;;13.00;99.90;;;;;;6154904;23;20005;-78
2023/06/09 04:30:25;;;;;;;6.65;4.90;;;13.00;99.90;;;;;;6181300;23;20397;-79
2023/06/09 04:32:52;;;;;;;13.55;5.65;;;13.10;99.90;;;;;;6155557;23;20001;-78
2023/06/09 04:35:19;;;;;;;11.10;5.10;;;13.10;99.90;;;;;;6151533;23;20016;-79
2023/06/09 04:37:45;;;;;;;8.18;5.53;;;13.20;99.90;;;;;;6183549;23;20454;-79
2023/06/09 04:40:14;;;;;;;10.02;5.40;;;13.30;99.90;;;;;;6156615;23;20072;-80
2023/06/09 04:42:39;;;;;;;8.23;5.05;;;13.30;99.90;;;;;;6157207;23;20005;-79
2023/06/09 04:45:05;;;;;;;9.35;5.47;;;13.40;99.90;;;;;;6155057;23;20029;-79
2023/06/09 04:47:31;;;;;;;9.18;4.82;;;13.50;99.90;;;;;;6182457;23;20004;-79
2023/06/09 04:49:57;;;;;;;11.02;5.55;;;13.50;99.90;;;;;;6157287;23;20009;-79
2023/06/09 04:52:23;;;;;;;10.05;5.22;;;13.60;99.90;;;;;;6155068;23;20088;-79
2023/06/09 04:54:52;;;;;;;7.32;5.32;;;13.70;99.90;;;;;;6167282;23;20796;-79
2023/06/09 04:57:17;;;;;;;12.18;4.93;;;13.80;99.90;;;;;;6170800;23;20048;-79
2023/06/09 04:59:45;;;;;;;8.93;4.63;;;13.80;99.90;;;;;;6166044;23;20005;-79
2023/06/09 05:02:11;;;;;;;9.38;4.57;;;13.90;99.90;;;;;;6167053;23;20020;-79
2023/06/09 05:04:37;;;;;;;8.07;4.93;;;14.00;99.90;;;;;;6165912;23;20009;-80
2023/06/09 05:07:03;;;;;;;6.13;4.22;;;14.00;99.90;;;;;;6193752;23;20039;-80
2023/06/09 05:09:29;;;;;;;8.23;5.13;;;14.10;99.90;;;;;;6191219;23;20005;-81
2023/06/09 05:11:55;;;;;;;10.60;5.10;;;14.20;99.90;;;;;;6165641;23;20005;-79
2023/06/09 05:14:20;;;;;;;11.85;5.05;;;14.20;99.90;;;;;;6191285;23;20009;-79
2023/06/09 05:16:46;;;;;;;11.15;5.40;;;14.30;99.90;;;;;;6158551;23;20001;-79
2023/06/09 05:19:12;;;;;;;9.45;5.40;;;14.30;99.90;;;;;;6154405;23;20111;-79
2023/06/09 05:21:38;;;;;;;11.48;5.88;;;14.40;99.90;;;;;;6182227;23;20013;-79
2023/06/09 05:24:05;;;;;;;6.65;5.20;;;14.40;99.90;;;;;;6161813;23;20080;-79
2023/06/09 05:26:30;;;;;;;11.05;5.25;;;14.50;99.90;;;;;;6171391;23;20005;-79
2023/06/09 05:28:56;;;;;;;8.57;5.07;;;14.60;99.90;;;;;;6171833;23;20005;-82
2023/06/09 05:31:23;;;;;;;7.45;4.85;;;14.70;99.90;;;;;;6171627;23;20013;-79
2023/06/09 05:33:49;;;;;;;12.75;4.80;;;14.80;99.90;;;;;;6171937;23;20005;-79
2023/06/09 05:36:14;;;;;;;10.40;4.72;;;14.90;99.90;;;;;;6169917;23;20031;-78
2023/06/09 05:38:40;;;;;;;10.18;5.75;;;15.00;99.90;;;;;;6169542;23;20011;-79
2023/06/09 05:41:06;;;;;;;7.65;4.68;;;15.20;99.90;;;;;;6167592;23;20009;-79
2023/06/09 05:43:31;;;;;;;8.65;4.15;;;15.30;99.90;;;;;;6167233;23;20494;-79
2023/06/09 05:45:57;;;;;;;10.50;5.10;;;15.50;99.90;;;;;;6191114;23;20415;-79
2023/06/09 05:48:23;;;;;;;6.78;5.03;;;15.70;99.90;;;;;;6165022;23;20001;-79
2023/06/09 05:50:49;;;;;;;7.70;5.03;;;15.90;99.90;;;;;;6172418;23;20016;-80
2023/06/09 05:53:17;;;;;;;8.10;4.88;;;16.10;99.90;;;;;;6175438;23;20024;-80
2023/06/09 05:55:45;;;;;;;8.70;4.22;;;16.30;99.90;;;;;;6176258;23;20059;-80
2023/06/09 05:58:13;;;;;;;9.27;4.32;;;16.50;99.90;;;;;;6172210;23;20038;-79
2023/06/09 06:00:38;;;;;;;9.02;4.30;;;16.70;99.90;;;;;;6196174;23;20040;-79
2023/06/09 06:03:06;;;;;;;9.15;4.38;;;16.90;99.90;;;;;;6170496;23;20030;-79
2023/06/09 06:05:31;;;;;;;9.60;4.45;;;17.00;99.90;;;;;;6168818;23;20009;-80
2023/06/09 06:07:58;;;;;;;9.52;4.32;;;17.20;99.90;;;;;;6168763;23;20015;-80
2023/06/09 06:10:24;;;;;;;4.97;3.88;;;17.40;99.90;;;;;;6193170;23;20111;-78
2023/06/09 06:12:50;;;;;;;8.38;4.25;;;17.50;99.90;;;;;;6165984;23;20028;-79
2023/06/09 06:15:16;;;;;;;6.65;3.80;;;17.60;99.90;;;;;;6163274;23;20033;-80
2023/06/09 06:17:41;;;;;;;8.05;4.03;;;17.80;99.90;;;;;;6165582;23;20069;-80
2023/06/09 06:20:07;;;;;;;6.57;4.03;;;18.00;99.90;;;;;;6164919;23;20287;-78
2023/06/09 06:22:33;;;;;;;7.07;4.20;;;18.10;99.90;;;;;;6190588;23;20004;-79
2023/06/09 06:24:59;;;;;;;5.15;3.78;;;18.30;99.90;;;;;;6160516;23;20637;-78
2023/06/09 06:27:24;;;;;;;6.53;4.00;;;18.50;99.90;;;;;;6162563;23;20083;-80
2023/06/09 06:29:50;;;;;;;8.00;4.18;;;18.60;99.90;;;;;;6162423;23;20040;-80
2023/06/09 06:32:15;;;;;;;7.03;3.63;;;18.80;99.90;;;;;;6189084;23;20009;-79
2023/06/09 06:34:41;;;;;;;3.75;3.45;;;19.00;99.90;;;;;;6161520;23;20092;-80
2023/06/09 06:37:07;;;;;;;5.25;3.20;;;19.20;99.90;;;;;;6162380;23;20005;-79
2023/06/09 06:39:32;;;;;;;7.47;3.40;;;19.40;99.90;;;;;;6162623;23;20001;-80
2023/06/09 06:41:58;;;;;;;7.53;3.75;;;19.60;99.90;;;;;;6161637;23;20461;-81
2023/06/09 06:44:23;;;;;;;4.78;3.72;;;19.80;99.90;;;;;;6187731;23;20079;-79
2023/06/09 06:46:49;;;;;;;7.47;3.90;;;20.00;99.90;;;;;;6160904;23;20002;-79
2023/06/09 06:49:14;;;;;;;12.75;3.85;;;20.20;99.90;;;;;;6188829;23;20005;-79
2023/06/09 06:51:41;;;;;;;6.63;4.20;;;20.40;99.90;;;;;;6160746;23;20072;-80
2023/06/09 06:54:06;;;;;;;4.20;2.88;;;20.50;99.90;;;;;;6161229;23;20013;-80
2023/06/09 06:56:32;;;;;;;5.53;3.58;;;20.70;99.90;;;;;;6161962;23;20374;-80
2023/06/09 06:58:57;;;;;;;8.52;4.15;;;20.90;99.90;;;;;;6189232;23;20008;-80
2023/06/09 07:01:25;;;;;;;5.22;3.33;;;21.00;99.90;;;;;;6157786;23;20032;-81
2023/06/09 07:03:51;;;;;;;3.90;3.50;;;21.20;99.90;;;;;;6159390;23;20020;-80
2023/06/09 07:06:17;;;;;;;7.70;3.33;;;21.40;99.90;;;;;;6157429;23;20013;-78
2023/06/09 07:08:43;;;;;;;6.97;3.90;;;21.50;99.90;;;;;;6185621;23;20000;-80
2023/06/09 07:11:09;;;;;;;5.00;3.38;;;21.60;99.90;;;;;;6158130;23;20040;-79
2023/06/09 07:13:34;;;;;;;6.75;3.72;;;21.70;99.90;;;;;;6157209;23;20005;-78
2023/06/09 07:16:00;;;;;;;5.07;3.40;;;21.80;99.90;;;;;;6153051;23;20005;-84
2023/06/09 07:18:29;;;;;;;6.25;3.58;;;22.00;99.70;;;;;;6155204;23;20258;-81
2023/06/09 07:20:55;;;;;;;5.97;3.75;;;22.20;98.90;;;;;;6155512;23;20024;-82
2023/06/09 07:23:20;;;;;;;6.07;3.20;;;22.40;99.10;;;;;;6154998;23;20016;-80
2023/06/09 07:25:46;;;;;;;6.68;3.45;;;22.50;99.10;;;;;;6180680;23;20044;-81
2023/06/09 07:28:11;;;;;;;5.65;3.47;;;22.60;98.60;;;;;;6181870;23;20094;-80
2023/06/09 07:30:40;;;;;;;6.28;3.65;;;22.70;97.80;;;;;;6156065;23;20017;-80
2023/06/09 07:33:06;;;;;;;6.82;3.55;;;22.90;97.70;;;;;;6153649;23;20057;-77
2023/06/09 07:35:32;;;;;;;8.63;4.32;;;23.00;98.60;;;;;;6152052;23;20084;-79
2023/06/09 07:37:58;;;;;;;5.30;4.05;;;23.10;96.40;;;;;;6154021;23;20002;-79
2023/06/09 07:40:23;;;;;;;7.68;4.32;;;23.20;96.70;;;;;;6155609;23;20027;-80
2023/06/09 07:42:49;;;;;;;6.47;3.72;;;23.20;96.80;;;;;;6181898;23;20008;-80
2023/06/09 07:45:14;;;;;;;6.70;3.83;;;23.30;96.10;;;;;;6181735;23;20000;-81
2023/06/09 07:47:40;;;;;;;5.72;4.10;;;23.40;95.90;;;;;;6154779;23;20001;-83
2023/06/09 07:50:06;;;;;;;7.78;3.55;;;23.50;95.60;;;;;;6195233;23;20043;-79
2023/06/09 07:52:32;;;;;;;8.70;4.05;;;23.60;95.50;;;;;;6165154;23;20028;-81
2023/06/09 07:54:58;;;;;;;6.40;3.80;;;23.50;94.70;;;;;;6168769;23;20016;-80
2023/06/09 07:57:23;;;;;;;7.45;4.80;;;23.70;94.90;;;;;;6166247;23;20025;-83
2023/06/09 07:59:49;;;;;;;6.45;4.22;;;23.90;94.40;;;;;;6166279;23;20080;-80
2023/06/09 08:02:16;;;;;;;4.78;3.92;;;24.00;93.40;;;;;;6166951;23;20017;-80
2023/06/09 08:04:42;;;;;;;5.30;4.18;;;24.10;93.40;;;;;;6164769;23;20072;-81
2023/06/09 08:07:09;;;;;;;5.53;3.63;;;24.20;93.30;;;;;;6165846;23;20485;-79
2023/06/09 08:09:34;;;;;;;4.32;3.90;;;24.40;92.90;;;;;;6163853;23;20016;-81
2023/06/09 08:12:00;;;;;;;6.25;3.88;;;24.50;92.70;;;;;;6157313;23;20055;-82
2023/06/09 08:14:25;;;;;;;6.97;3.92;;;24.70;92.40;;;;;;6179189;23;20002;-79
2023/06/09 08:16:52;;;;;;;7.57;4.55;;;24.80;91.70;;;;;;6179067;23;20001;-81
2023/06/09 08:19:17;;;;;;;13.45;4.38;;;24.80;90.70;;;;;;6153537;23;20378;-80
2023/06/09 08:21:43;;;;;;;4.55;3.53;;;24.80;92.20;;;;;;6179835;23;20011;-81
2023/06/09 08:24:13;;;;;;;6.78;3.70;;;25.10;91.90;;;;;;6167452;23;20106;-81
2023/06/09 08:26:40;;;;;;;3.95;3.47;;;25.30;90.60;;;;;;6172825;23;20020;-83
2023/06/09 08:29:06;;;;;;;6.57;3.28;;;25.40;89.90;;;;;;6125781;23;1042692;-84
2023/06/09 08:31:33;;;;;;;5.80;3.80;;;25.60;88.70;;;;;;6169649;23;20025;-81
2023/06/09 08:33:59;;;;;;;5.57;3.65;;;25.70;89.10;;;;;;6168514;23;20119;-80
2023/06/09 08:36:25;;;;;;;5.82;3.63;;;25.60;87.60;;;;;;6164188;23;20009;-78
2023/06/09 08:38:50;;;;;;;7.63;4.28;;;25.70;86.80;;;;;;6157212;23;20028;-79
2023/06/09 08:41:18;;;;;;;5.10;3.50;;;25.70;87.30;;;;;;6155046;23;20502;-80
2023/06/09 08:43:46;;;;;;;6.20;4.30;;;25.70;87.80;;;;;;6154218;23;20045;-79
2023/06/09 08:46:12;;;;;;;4.93;3.67;;;25.90;86.70;;;;;;6153521;23;20012;-81
2023/06/09 08:48:49;;;;;;;6.55;3.80;;;25.90;87.00;;;;;;6180540;23;20104;-78
2023/06/09 08:51:16;;;;;;;5.85;3.75;;;25.90;85.10;;;;;;6153072;23;20009;-81
2023/06/09 08:53:42;;;;;;;7.72;3.38;;;25.90;85.00;;;;;;6154608;23;20012;-82
2023/06/09 08:56:08;;;;;;;4.78;3.38;;;25.90;84.90;;;;;;6152965;23;20056;-78
2023/06/09 08:58:36;;;;;;;5.53;3.50;;;25.90;82.50;;;;;;6153304;23;20009;-81
2023/06/09 09:01:02;;;;;;;7.05;4.05;;;25.70;79.50;;;;;;6153609;23;20482;-80
2023/06/09 09:03:27;;;;;;;6.10;3.70;;;25.80;81.40;;;;;;6153835;23;20009;-81
2023/06/09 09:05:53;;;;;;;7.13;3.38;;;25.90;81.50;;;;;;6153805;23;20322;-80
2023/06/09 09:08:20;;;;;;;3.85;3.30;;;26.10;80.90;;;;;;6179954;23;19997;-79
2023/06/09 09:10:46;;;;;;;5.50;3.47;;;26.30;78.60;;;;;;6151860;23;20025;-83
2023/06/09 09:13:12;;;;;;;4.13;3.47;;;26.40;80.50;;;;;;6155603;23;20009;-83
2023/06/09 09:15:50;;;;;;;5.25;3.95;;;26.50;80.50;;;;;;6162643;23;20569;-84
2023/06/09 09:18:17;;;;;;;4.13;3.60;;;26.50;81.40;;;;;;6165492;23;20012;-80
2023/06/09 09:20:43;;;;;;;4.47;3.17;;;26.10;81.60;;;;;;6165693;23;20013;-85
2023/06/09 09:23:08;;;;;;;5.72;3.70;;;26.20;78.40;;;;;;6166085;23;20145;-81
2023/06/09 09:25:34;;;;;;;5.25;3.80;;;26.30;77.40;;;;;;6166498;23;20005;-81
2023/06/09 09:28:02;;;;;;;4.90;3.60;;;26.40;76.20;;;;;;6164011;23;20004;-79
2023/06/09 09:30:47;;;;;;;4.30;3.35;;;26.50;75.70;;;;;;6186240;23;20064;-82
2023/06/09 09:33:15;;;;;;;5.97;3.35;;;26.60;79.20;;;;;;6160977;23;20016;-82
2023/06/09 09:35:46;;;;;;;5.97;3.75;;;26.70;78.40;;;;;;6158201;23;20009;-83
2023/06/09 09:38:20;;;;;;;4.30;3.22;;;26.70;77.00;;;;;;6160823;23;20723;-84
2023/06/09 09:40:47;;;;;;;4.10;3.25;;;26.60;77.00;;;;;;6159454;23;20362;-83
2023/06/09 09:43:14;;;;;;;3.97;3.22;;;26.70;78.00;;;;;;6185604;23;20087;-81
2023/06/09 09:46:08;;;;;;;6.13;3.85;;;26.70;77.70;;;;;;6187410;23;20009;-83
2023/06/09 09:48:38;;;;;;;3.88;3.00;;;26.70;75.90;;;;;;6150220;23;20506;-85
2023/06/09 09:51:06;;;;;;;5.45;3.45;;;26.70;76.00;;;;;;6159109;23;20510;-83
2023/06/09 09:53:32;;;;;;;4.75;3.22;;;26.60;74.50;;;;;;6165178;23;19993;-85
2023/06/09 09:56:00;;;;;;;5.25;3.55;;;26.60;76.10;;;;;;6176398;23;20011;-81
2023/06/09 09:58:36;;;;;;;4.15;2.97;;;26.50;73.70;;;;;;6204762;23;20009;-82
2023/06/09 10:01:04;;;;;;;6.15;3.00;;;26.50;71.80;;;;;;6171539;23;20017;-82
2023/06/09 10:03:31;;;;;;;8.45;3.17;;;26.40;72.40;;;;;;6196259;23;20077;-81
2023/06/09 10:06:00;;;;;;;4.18;3.08;;;26.30;71.80;;;;;;6170972;23;20601;-82
2023/06/09 10:08:30;;;;;;;5.88;3.30;;;26.30;73.20;;;;;;6170992;23;20008;-80
2023/06/09 10:10:59;;;;;;;5.45;3.40;;;26.30;72.70;;;;;;6194502;23;20020;-81
2023/06/09 10:13:26;;;;;;;4.90;3.15;;;26.00;72.50;;;;;;6195539;23;20016;-81
2023/06/09 10:15:53;;;;;;;6.15;3.75;;;26.10;73.40;;;;;;6167615;23;20025;-83
2023/06/09 10:18:20;;;;;;;3.58;2.78;;;26.00;73.50;;;;;;6165868;23;20005;-84
2023/06/09 10:20:48;;;;;;;7.05;3.80;;;26.10;72.90;;;;;;6167689;23;20114;-80
2023/06/09 10:23:15;;;;;;;5.00;3.22;;;26.10;73.30;;;;;;6192420;23;20021;-82
2023/06/09 10:25:41;;;;;;;4.35;2.92;;;26.10;72.90;;;;;;6165285;23;20446;-79
2023/06/09 10:28:07;;;;;;;4.80;3.50;;;26.20;73.50;;;;;;6164041;23;20042;-82
2023/06/09 10:30:33;;;;;;;3.60;2.83;;;26.10;71.90;;;;;;6189991;23;20028;-84
2023/06/09 10:33:05;;;;;;;4.80;3.13;;;26.00;72.60;;;;;;6162855;23;20328;-82
2023/06/09 10:35:32;;;;;;;5.50;3.58;;;26.10;72.50;;;;;;6163495;23;20092;-82
2023/06/09 10:37:59;;;;;;;3.28;2.78;;;26.20;71.80;;;;;;6164647;23;20015;-81
2023/06/09 10:40:30;;;;;;;4.20;2.92;;;26.20;72.30;;;;;;6163150;23;20009;-82
2023/06/09 10:43:38;;;;;;;5.35;3.75;;;26.30;71.20;;;;;;6194443;23;20382;-84
2023/06/09 10:46:03;;;;;;;3.45;3.00;;;26.20;71.60;;;;;;6168608;23;20005;-81
2023/06/09 10:48:50;;;;;;;4.28;3.20;;;26.10;71.70;;;;;;6168188;23;20005;-81
2023/06/09 10:51:28;;;;;;;4.60;3.13;;;26.20;72.50;;;;;;6167933;23;20005;-81
2023/06/09 10:54:12;;;;;;;4.72;3.40;;;26.20;72.00;;;;;;6164610;23;20026;-82
2023/06/09 10:57:02;;;;;;;4.15;3.15;;;26.10;71.80;;;;;;6167364;23;20041;-81
2023/06/09 10:59:30;;;;;;;5.13;3.17;;;26.10;71.70;;;;;;6165402;23;20029;-83
2023/06/09 11:01:59;;;;;;;6.70;3.58;;;26.10;70.30;;;;;;6164002;23;20017;-80
2023/06/09 11:04:49;;;;;;;3.45;3.03;;;26.10;70.10;;;;;;6164263;23;20001;-80
2023/06/09 11:07:27;;;;;;;4.85;3.25;;;26.20;68.80;;;;;;6150538;23;20016;-80
2023/06/09 11:09:55;;;;;;;5.80;3.42;;;26.30;68.80;;;;;;6163603;23;20019;-82
2023/06/09 11:12:42;;;;;;;5.43;2.95;;;26.30;69.80;;;;;;6162304;23;20001;-81
2023/06/09 11:15:09;;;;;;;3.72;3.03;;;26.30;67.20;;;;;;6190297;23;20031;-81
2023/06/09 11:17:43;;;;;;;4.35;2.85;;;26.30;69.50;;;;;;6161385;23;20013;-83
2023/06/09 11:20:08;;;;;;;5.30;3.33;;;26.40;67.40;;;;;;6163413;23;20080;-82
2023/06/09 11:22:50;;;;;;;3.67;3.28;;;26.50;68.30;;;;;;6167285;23;20067;-83
2023/06/09 11:25:18;;;;;;;4.13;2.90;;;26.50;67.20;;;;;;6198185;23;20001;-81
2023/06/09 11:27:45;;;;;;;4.63;3.05;;;26.50;66.60;;;;;;6199766;23;19996;-80
2023/06/09 11:30:18;;;;;;;4.65;2.83;;;26.50;66.50;;;;;;6198872;23;20005;-80
2023/06/09 11:32:50;;;;;;;5.00;3.10;;;26.50;66.00;;;;;;6170060;23;20001;-82
2023/06/09 11:35:40;;;;;;;3.63;2.97;;;26.50;65.70;;;;;;6169901;23;19997;-85
2023/06/09 11:38:07;;;;;;;3.78;2.67;;;26.50;65.90;;;;;;6167019;23;20012;-81
2023/06/09 11:40:38;;;;;;;5.20;3.10;;;26.50;64.80;;;;;;6193273;23;20005;-79
2023/06/09 11:43:10;;;;;;;7.05;2.95;;;26.30;65.20;;;;;;6166383;23;20009;-82
2023/06/09 11:45:36;;;;;;;7.88;3.25;;;26.30;66.20;;;;;;6162752;23;20434;-80
2023/06/09 11:48:05;;;;;;;3.72;3.03;;;26.20;66.10;;;;;;6189107;23;20418;-80
2023/06/09 11:50:45;;;;;;;4.00;3.42;;;26.30;66.60;;;;;;6164213;23;20008;-82
2023/06/09 11:53:12;;;;;;;4.32;2.58;;;26.40;63.30;;;;;;6164592;23;20089;-79
2023/06/09 11:55:38;;;;;;;3.70;3.30;;;26.30;62.30;;;;;;6161559;23;20013;-81
2023/06/09 11:58:06;;;;;;;2.53;2.13;;;26.50;62.60;;;;;;6188070;23;20623;-81
2023/06/09 12:00:36;;;;;;;3.38;3.00;;;26.60;61.30;;;;;;6161921;23;20474;-81
2023/06/09 12:03:02;;;;;;;5.25;3.40;;;26.70;62.30;;;;;;6187595;23;20025;-82
2023/06/09 12:05:28;;;;;;;6.28;2.70;;;26.60;60.20;;;;;;6161567;23;20001;-82
2023/06/09 12:07:55;;;;;;;3.95;3.20;;;26.60;60.70;;;;;;6160086;23;20028;-79
2023/06/09 12:10:24;;;;;;;5.90;2.72;;;26.70;60.60;;;;;;6159963;23;20338;-80
2023/06/09 12:12:57;;;;;;;3.20;2.65;;;26.80;57.50;;;;;;6161555;23;20009;-80
2023/06/09 12:15:25;;;;;;;3.63;2.42;;;26.70;56.70;;;;;;6184904;23;20339;-83
2023/06/09 12:17:53;;;;;;;3.47;2.65;;;26.80;56.40;;;;;;6161160;23;20323;-81
2023/06/09 12:20:25;;;;;;;3.58;2.20;;;26.80;54.60;;;;;;6188456;23;20000;-79
2023/06/09 12:22:55;;;;;;;3.53;2.70;;;26.90;52.50;;;;;;6161187;23;20015;-79
2023/06/09 12:25:31;;;;;;;3.20;2.47;;;26.70;53.00;;;;;;6158283;23;20008;-79
2023/06/09 12:28:23;;;;;;;3.65;2.83;;;26.80;52.30;;;;;;6161352;23;20021;-80
2023/06/09 12:30:50;;;;;;;3.88;2.58;;;26.90;54.00;;;;;;6159449;23;20083;-79
2023/06/09 12:33:18;;;;;;;2.92;2.63;;;27.00;54.50;;;;;;6160691;23;20016;-82
2023/06/09 12:35:46;;;;;;;4.03;2.45;;;27.10;56.20;;;;;;6184467;23;20013;-80
2023/06/09 12:38:19;;;;;;;4.47;2.45;;;27.10;53.80;;;;;;6160562;23;20019;-81
2023/06/09 12:40:56;;;;;;;2.47;2.28;;;27.10;54.80;;;;;;6161796;23;20036;-82
2023/06/09 12:43:24;;;;;;;3.20;2.47;;;27.20;50.60;;;;;;6160436;23;20449;-81
2023/06/09 12:45:54;;;;;;;3.78;2.65;;;27.10;49.70;;;;;;6160732;23;20011;-80
2023/06/09 12:48:20;;;;;;;2.78;2.58;;;27.00;50.70;;;;;;6160825;23;20044;-81
2023/06/09 12:50:46;;;;;;;5.13;2.85;;;27.00;51.90;;;;;;6161130;23;20485;-81